Time;durP1;ratioP1;P1;durP2;ratioP2;P2;SDS_P1;SDS_P2;PMS_P1;PMS_P2;Temp;Humidity;BMP_temperature;BMP_pressure;BME280_temperature;BME280_humidity;BME280_pressure;Samples;Min_cycle;Max_cycle;Signal;HPM_P1;HPM_P2
2020/12/14 00:00:52;;;;;;;175.57;76.60;;;;;;;;;;5052703;28;20374;-78
2020/12/14 00:03:18;;;;;;;168.73;74.55;;;;;;;;;;5070639;28;20359;-77
2020/12/14 00:05:44;;;;;;;167.23;72.60;;;;;;;;;;5070532;28;20771;-77
2020/12/14 00:08:10;;;;;;;198.27;80.73;;;;;;;;;;5052865;28;20519;-78
2020/12/14 00:10:36;;;;;;;173.50;75.82;;;;;;;;;;5070627;28;20369;-78
2020/12/14 00:13:02;;;;;;;182.68;78.35;;;;;;;;;;5070615;28;20390;-78
2020/12/14 00:15:28;;;;;;;165.80;74.35;;;;;;;;;;5070445;28;20381;-78
2020/12/14 00:17:54;;;;;;;162.35;74.90;;;;;;;;;;5070102;28;20841;-78
2020/12/14 00:20:20;;;;;;;172.13;76.80;;;;;;;;;;5070220;28;20361;-78
2020/12/14 00:22:46;;;;;;;184.02;77.63;;;;;;;;;;5052824;28;20900;-78
2020/12/14 00:25:12;;;;;;;163.50;73.77;;;;;;;;;;5070627;28;20390;-77
2020/12/14 00:27:38;;;;;;;191.23;78.57;;;;;;;;;;5052849;28;20393;-77
2020/12/14 00:30:05;;;;;;;202.15;79.78;;;;;;;;;;5052386;28;20398;-77
2020/12/14 00:32:31;;;;;;;203.20;83.03;;;;;;;;;;5070407;28;20401;-78
2020/12/14 00:34:57;;;;;;;182.07;78.47;;;;;;;;;;5070531;28;20500;-79
2020/12/14 00:37:23;;;;;;;203.18;81.07;;;;;;;;;;5054733;28;20366;-78
2020/12/14 00:39:49;;;;;;;194.05;79.28;;;;;;;;;;5056180;28;20436;-78
2020/12/14 00:42:15;;;;;;;239.60;85.80;;;;;;;;;;5056274;28;20389;-78
2020/12/14 00:44:41;;;;;;;220.95;84.22;;;;;;;;;;5056310;28;20369;-78
2020/12/14 00:47:07;;;;;;;270.37;91.63;;;;;;;;;;5056043;28;20377;-78
2020/12/14 00:49:33;;;;;;;243.10;84.43;;;;;;;;;;5073850;28;20377;-78
2020/12/14 00:52:04;;;;;;;157.63;70.95;;;;;;;;;;5074053;28;20761;-77
2020/12/14 00:54:30;;;;;;;165.65;71.38;;;;;;;;;;5055812;28;20445;-78
2020/12/14 00:56:56;;;;;;;177.50;75.85;;;;;;;;;;5055853;28;20450;-77
2020/12/14 00:59:22;;;;;;;213.80;78.65;;;;;;;;;;5055872;28;20836;-78
2020/12/14 01:01:54;;;;;;;204.98;76.57;;;;;;;;;;5056002;28;20416;-78
2020/12/14 01:04:21;;;;;;;187.32;72.80;;;;;;;;;;5074050;28;20445;-78
2020/12/14 01:06:50;;;;;;;201.10;77.73;;;;;;;;;;5056085;28;20363;-78
2020/12/14 01:09:16;;;;;;;273.73;84.30;;;;;;;;;;5073450;28;20450;-77
2020/12/14 01:11:42;;;;;;;231.32;82.28;;;;;;;;;;5073569;28;20473;-77
2020/12/14 01:14:08;;;;;;;235.38;82.65;;;;;;;;;;5055763;28;20450;-78
2020/12/14 01:16:34;;;;;;;241.30;84.80;;;;;;;;;;5055899;28;20433;-78
2020/12/14 01:19:00;;;;;;;220.52;81.00;;;;;;;;;;5073776;28;20407;-78
2020/12/14 01:21:26;;;;;;;225.48;83.70;;;;;;;;;;5055681;28;20374;-78
2020/12/14 01:23:52;;;;;;;232.40;86.13;;;;;;;;;;5073919;28;20864;-78
2020/12/14 01:26:19;;;;;;;216.82;80.13;;;;;;;;;;5055783;28;20371;-78
2020/12/14 01:28:45;;;;;;;238.30;84.35;;;;;;;;;;5055463;28;20354;-78
2020/12/14 01:31:11;;;;;;;191.25;76.78;;;;;;;;;;5055266;28;20788;-78
2020/12/14 01:33:37;;;;;;;276.70;88.28;;;;;;;;;;5073430;28;20358;-78
2020/12/14 01:36:03;;;;;;;236.03;82.97;;;;;;;;;;5073598;28;20365;-78
2020/12/14 01:38:29;;;;;;;253.35;85.65;;;;;;;;;;5055371;28;20370;-78
2020/12/14 01:40:55;;;;;;;258.83;85.35;;;;;;;;;;5055231;28;20372;-79
2020/12/14 01:43:22;;;;;;;192.27;75.07;;;;;;;;;;5055538;28;20441;-78
2020/12/14 01:45:49;;;;;;;205.52;71.90;;;;;;;;;;5073621;28;20358;-78
2020/12/14 01:48:15;;;;;;;198.53;72.43;;;;;;;;;;5054151;28;20455;-79
2020/12/14 01:50:41;;;;;;;192.32;72.10;;;;;;;;;;5055107;28;20358;-79
2020/12/14 01:53:10;;;;;;;172.80;70.03;;;;;;;;;;5055134;28;20460;-78
2020/12/14 01:55:41;;;;;;;151.02;66.10;;;;;;;;;;5054805;28;20376;-78
2020/12/14 01:58:07;;;;;;;186.30;70.68;;;;;;;;;;5072702;28;20412;-79
2020/12/14 02:00:33;;;;;;;194.13;73.20;;;;;;;;;;5072870;28;20412;-78
2020/12/14 02:02:59;;;;;;;183.13;68.20;;;;;;;;;;5054996;28;20424;-78
2020/12/14 02:05:25;;;;;;;188.32;72.55;;;;;;;;;;5072843;28;20441;-78
2020/12/14 02:07:51;;;;;;;173.73;70.43;;;;;;;;;;5073217;28;20437;-79
2020/12/14 02:10:17;;;;;;;225.27;76.35;;;;;;;;;;5072533;28;20354;-79
2020/12/14 02:12:43;;;;;;;195.80;72.32;;;;;;;;;;5072510;28;20394;-78
2020/12/14 02:15:09;;;;;;;186.47;71.50;;;;;;;;;;5072654;28;20409;-79
2020/12/14 02:17:35;;;;;;;245.52;76.63;;;;;;;;;;5054865;28;20374;-78
2020/12/14 02:20:02;;;;;;;188.07;71.88;;;;;;;;;;5054636;28;20917;-78
2020/12/14 02:22:28;;;;;;;196.63;71.75;;;;;;;;;;5072428;28;20382;-78
2020/12/14 02:24:57;;;;;;;178.87;70.00;;;;;;;;;;5072290;28;20362;-78
2020/12/14 02:27:23;;;;;;;162.48;66.22;;;;;;;;;;5054587;28;20370;-78
2020/12/14 02:29:49;;;;;;;208.70;74.88;;;;;;;;;;5072355;28;20367;-78
2020/12/14 02:32:16;;;;;;;209.60;73.80;;;;;;;;;;5072228;28;20397;-78
2020/12/14 02:34:43;;;;;;;184.32;72.47;;;;;;;;;;5054506;28;20358;-78
2020/12/14 02:37:10;;;;;;;132.43;61.38;;;;;;;;;;5072331;28;20354;-78
2020/12/14 02:39:37;;;;;;;134.90;61.93;;;;;;;;;;5053831;28;20374;-78
2020/12/14 02:42:05;;;;;;;154.50;65.50;;;;;;;;;;5071515;28;20377;-78
2020/12/14 02:44:31;;;;;;;201.38;73.30;;;;;;;;;;5072192;28;20358;-78
2020/12/14 02:46:57;;;;;;;187.23;72.90;;;;;;;;;;5054365;28;20871;-78
2020/12/14 02:49:23;;;;;;;205.48;73.20;;;;;;;;;;5072150;28;20369;-78
2020/12/14 02:51:49;;;;;;;143.68;64.63;;;;;;;;;;5054107;28;20497;-80
2020/12/14 02:54:15;;;;;;;170.10;68.93;;;;;;;;;;5072525;28;20365;-78
2020/12/14 02:56:43;;;;;;;231.00;73.90;;;;;;;;;;5071961;28;20434;-79
2020/12/14 02:59:10;;;;;;;260.20;84.55;;;;;;;;;;5053263;28;20464;-79
2020/12/14 03:01:36;;;;;;;152.02;67.53;;;;;;;;;;5053711;28;20370;-78
2020/12/14 03:04:02;;;;;;;152.27;65.70;;;;;;;;;;5071602;28;20358;-78
2020/12/14 03:06:27;;;;;;;210.55;73.22;;;;;;;;;;5073707;28;20369;-79
2020/12/14 03:08:54;;;;;;;138.75;64.43;;;;;;;;;;5056569;28;20378;-79
2020/12/14 03:11:20;;;;;;;132.93;61.10;;;;;;;;;;5058830;28;20371;-79
2020/12/14 03:13:46;;;;;;;125.00;59.13;;;;;;;;;;5053603;28;20457;-78
2020/12/14 03:16:11;;;;;;;146.52;63.90;;;;;;;;;;5071219;28;20461;-78
2020/12/14 03:18:37;;;;;;;129.75;60.83;;;;;;;;;;5053431;28;20362;-78
2020/12/14 03:21:07;;;;;;;193.80;69.22;;;;;;;;;;5052891;28;20390;-79
2020/12/14 03:23:34;;;;;;;139.52;60.50;;;;;;;;;;5071208;28;20366;-78
2020/12/14 03:26:00;;;;;;;127.07;58.67;;;;;;;;;;5053288;28;20949;-78
2020/12/14 03:28:26;;;;;;;144.85;62.78;;;;;;;;;;5053078;28;20369;-78
2020/12/14 03:30:52;;;;;;;163.30;65.40;;;;;;;;;;5052631;28;20369;-78
2020/12/14 03:33:18;;;;;;;159.00;64.75;;;;;;;;;;5052843;28;20398;-78
2020/12/14 03:35:48;;;;;;;140.60;64.15;;;;;;;;;;5070938;28;20354;-78
2020/12/14 03:38:17;;;;;;;142.65;62.55;;;;;;;;;;5071200;28;20825;-78
2020/12/14 03:40:44;;;;;;;137.13;63.70;;;;;;;;;;5070690;28;20366;-78
2020/12/14 03:43:10;;;;;;;175.35;68.35;;;;;;;;;;5052825;28;20370;-78
2020/12/14 03:45:37;;;;;;;137.25;62.42;;;;;;;;;;5070756;28;20366;-79
2020/12/14 03:48:03;;;;;;;143.80;65.35;;;;;;;;;;5070729;28;20392;-79
2020/12/14 03:50:29;;;;;;;134.32;63.40;;;;;;;;;;5052238;28;20373;-77
2020/12/14 03:52:55;;;;;;;159.57;67.80;;;;;;;;;;5070469;28;20429;-77
2020/12/14 03:55:21;;;;;;;133.97;65.13;;;;;;;;;;5052870;28;20401;-77
2020/12/14 03:57:47;;;;;;;128.63;63.78;;;;;;;;;;5070291;28;21004;-77
2020/12/14 04:00:13;;;;;;;155.77;68.15;;;;;;;;;;5052391;28;20432;-77
2020/12/14 04:02:39;;;;;;;159.73;71.88;;;;;;;;;;5052539;28;20424;-77
2020/12/14 04:05:05;;;;;;;124.88;65.15;;;;;;;;;;5052328;28;20370;-77
2020/12/14 04:07:31;;;;;;;153.60;69.87;;;;;;;;;;5052695;28;20373;-77
2020/12/14 04:09:57;;;;;;;133.00;65.13;;;;;;;;;;5052425;28;20366;-77
2020/12/14 04:12:23;;;;;;;127.68;63.65;;;;;;;;;;5069692;28;20447;-78
2020/12/14 04:14:49;;;;;;;131.80;64.15;;;;;;;;;;5070324;28;20852;-77
2020/12/14 04:17:15;;;;;;;104.22;58.53;;;;;;;;;;5070587;28;20354;-78
2020/12/14 04:19:41;;;;;;;118.95;60.40;;;;;;;;;;5051938;28;20370;-77
2020/12/14 04:22:09;;;;;;;106.77;58.43;;;;;;;;;;5070491;28;20420;-77
2020/12/14 04:24:36;;;;;;;105.57;57.97;;;;;;;;;;5052368;28;20393;-78
2020/12/14 04:27:03;;;;;;;119.35;60.22;;;;;;;;;;5070246;28;20366;-77
2020/12/14 04:29:29;;;;;;;106.97;57.95;;;;;;;;;;5052146;28;20370;-78
2020/12/14 04:31:54;;;;;;;121.22;62.65;;;;;;;;;;5070037;28;20504;-78
2020/12/14 04:34:21;;;;;;;102.90;58.78;;;;;;;;;;5052250;28;20362;-77
2020/12/14 04:36:50;;;;;;;111.65;59.92;;;;;;;;;;5052391;28;20420;-78
2020/12/14 04:39:17;;;;;;;105.85;58.13;;;;;;;;;;5052230;28;20388;-77
2020/12/14 04:41:43;;;;;;;100.93;58.15;;;;;;;;;;5052227;28;20458;-78
2020/12/14 04:44:09;;;;;;;106.28;58.45;;;;;;;;;;5070066;28;20350;-77
2020/12/14 04:46:36;;;;;;;102.30;58.38;;;;;;;;;;5070028;28;20363;-77
2020/12/14 04:49:05;;;;;;;102.78;57.72;;;;;;;;;;5051878;28;20366;-77
2020/12/14 04:51:32;;;;;;;106.47;58.85;;;;;;;;;;5052233;28;20374;-77
2020/12/14 04:54:00;;;;;;;104.03;59.58;;;;;;;;;;5069892;28;20365;-77
2020/12/14 04:56:27;;;;;;;110.18;59.75;;;;;;;;;;5069910;28;20362;-78
2020/12/14 04:58:55;;;;;;;91.20;55.72;;;;;;;;;;5051920;28;20373;-77
2020/12/14 05:01:21;;;;;;;102.32;57.15;;;;;;;;;;5051798;28;20370;-77
2020/12/14 05:03:47;;;;;;;95.82;56.83;;;;;;;;;;5069881;28;20362;-79
2020/12/14 05:06:13;;;;;;;113.03;61.80;;;;;;;;;;5052079;28;20469;-78
2020/12/14 05:08:39;;;;;;;124.15;62.85;;;;;;;;;;5051956;28;20370;-78
2020/12/14 05:11:05;;;;;;;116.60;61.78;;;;;;;;;;5051617;28;20416;-78
2020/12/14 05:13:33;;;;;;;118.97;62.15;;;;;;;;;;5069586;28;20487;-77
2020/12/14 05:15:59;;;;;;;142.80;67.63;;;;;;;;;;5051713;28;20795;-77
2020/12/14 05:18:26;;;;;;;124.13;64.40;;;;;;;;;;5069683;28;20922;-78
2020/12/14 05:21:02;;;;;;;125.25;62.45;;;;;;;;;;5051662;28;20416;-78
2020/12/14 05:23:29;;;;;;;134.93;64.35;;;;;;;;;;5071629;28;20458;-77
2020/12/14 05:26:08;;;;;;;125.18;65.00;;;;;;;;;;5048326;28;20383;-78
2020/12/14 05:28:35;;;;;;;135.40;64.53;;;;;;;;;;5035641;28;20458;-77
2020/12/14 05:31:01;;;;;;;118.60;62.30;;;;;;;;;;5060482;28;20358;-77
2020/12/14 05:33:28;;;;;;;126.30;65.33;;;;;;;;;;5053964;28;20486;-78
2020/12/14 05:35:54;;;;;;;124.03;65.03;;;;;;;;;;5055072;28;20366;-76
2020/12/14 05:38:23;;;;;;;124.80;64.10;;;;;;;;;;5055088;28;20385;-77
2020/12/14 05:40:49;;;;;;;120.95;62.58;;;;;;;;;;5054517;28;20384;-77
2020/12/14 05:43:17;;;;;;;117.23;63.13;;;;;;;;;;5065152;28;20449;-79
2020/12/14 05:45:43;;;;;;;124.28;62.15;;;;;;;;;;5058462;28;20370;-79
2020/12/14 05:48:28;;;;;;;103.25;57.38;;;;;;;;;;5063503;28;20434;-79
2020/12/14 05:50:58;;;;;;;109.18;58.70;;;;;;;;;;5062578;28;20376;-79
2020/12/14 05:53:31;;;;;;;102.18;56.83;;;;;;;;;;5043215;28;21015;-79
2020/12/14 05:56:01;;;;;;;110.13;60.13;;;;;;;;;;5061169;28;20382;-80
2020/12/14 05:58:29;;;;;;;103.93;58.10;;;;;;;;;;5044154;28;20491;-80
2020/12/14 06:00:55;;;;;;;104.05;56.65;;;;;;;;;;5059296;28;20433;-79
2020/12/14 06:03:23;;;;;;;98.72;56.67;;;;;;;;;;5062445;28;20863;-81
2020/12/14 06:05:51;;;;;;;94.80;54.63;;;;;;;;;;5042814;28;20372;-82
2020/12/14 06:08:32;;;;;;;88.53;52.72;;;;;;;;;;5043340;28;20379;-81
2020/12/14 06:10:58;;;;;;;100.15;56.33;;;;;;;;;;5043003;28;20372;-80
2020/12/14 06:13:30;;;;;;;85.45;52.90;;;;;;;;;;5064052;28;20400;-79
2020/12/14 06:16:00;;;;;;;109.13;58.30;;;;;;;;;;5043628;28;20384;-79
2020/12/14 06:18:28;;;;;;;85.25;52.88;;;;;;;;;;5043306;28;20793;-78
2020/12/14 06:20:54;;;;;;;105.75;57.67;;;;;;;;;;5042998;28;20382;-77
2020/12/14 06:23:21;;;;;;;93.93;55.67;;;;;;;;;;5058798;28;20372;-78
2020/12/14 06:25:47;;;;;;;98.18;57.08;;;;;;;;;;5038540;28;20364;-78
2020/12/14 06:28:28;;;;;;;90.53;53.70;;;;;;;;;;5042874;28;20793;-78
2020/12/14 06:30:54;;;;;;;84.50;51.50;;;;;;;;;;5060834;28;20393;-79
2020/12/14 06:33:40;;;;;;;98.83;55.23;;;;;;;;;;5059157;28;20390;-79
2020/12/14 06:36:15;;;;;;;83.82;52.70;;;;;;;;;;5061377;28;20853;-78
2020/12/14 06:38:41;;;;;;;83.10;52.38;;;;;;;;;;5042914;28;20419;-78
2020/12/14 06:41:13;;;;;;;77.72;49.30;;;;;;;;;;5061385;28;20437;-78
2020/12/14 06:43:39;;;;;;;90.68;53.38;;;;;;;;;;5045571;28;20376;-79
2020/12/14 06:46:05;;;;;;;95.60;56.35;;;;;;;;;;5043853;28;20432;-78
2020/12/14 06:48:44;;;;;;;80.07;52.00;;;;;;;;;;5044458;28;20885;-78
2020/12/14 06:51:15;;;;;;;85.95;52.60;;;;;;;;;;5044089;28;20851;-78
2020/12/14 06:53:44;;;;;;;93.82;54.90;;;;;;;;;;5042439;28;20422;-77
2020/12/14 06:56:11;;;;;;;76.80;50.80;;;;;;;;;;5061075;28;20370;-78
2020/12/14 06:58:41;;;;;;;81.22;50.85;;;;;;;;;;5044285;28;20374;-78
2020/12/14 07:01:26;;;;;;;90.15;53.42;;;;;;;;;;5043367;28;20380;-79
2020/12/14 07:03:52;;;;;;;81.25;51.53;;;;;;;;;;5062095;28;20397;-77
2020/12/14 07:06:25;;;;;;;76.68;49.03;;;;;;;;;;5044098;28;20444;-80
2020/12/14 07:08:51;;;;;;;79.55;50.72;;;;;;;;;;5043968;28;20443;-79
2020/12/14 07:11:18;;;;;;;82.15;51.25;;;;;;;;;;5040905;28;20374;-79
2020/12/14 07:13:45;;;;;;;88.78;54.38;;;;;;;;;;5043698;28;20396;-82
2020/12/14 07:16:12;;;;;;;87.60;54.50;;;;;;;;;;5042117;28;20770;-78
2020/12/14 07:18:39;;;;;;;85.83;53.70;;;;;;;;;;5060372;28;20362;-81
2020/12/14 07:21:12;;;;;;;83.85;52.08;;;;;;;;;;5044775;28;20376;-80
2020/12/14 07:23:40;;;;;;;83.05;52.40;;;;;;;;;;5060902;28;20368;-81
2020/12/14 07:26:08;;;;;;;80.70;50.70;;;;;;;;;;5063435;28;20432;-82
2020/12/14 07:28:38;;;;;;;81.55;51.10;;;;;;;;;;5042072;28;20440;-78
2020/12/14 07:31:08;;;;;;;89.07;52.33;;;;;;;;;;5057868;28;20368;-80
2020/12/14 07:33:34;;;;;;;86.85;54.33;;;;;;;;;;5059058;28;20390;-79
2020/12/14 07:36:02;;;;;;;86.67;53.10;;;;;;;;;;5058818;28;20381;-81
2020/12/14 07:38:28;;;;;;;91.60;56.22;;;;;;;;;;5042941;28;20386;-76
2020/12/14 07:41:06;;;;;;;90.50;54.25;;;;;;;;;;5063548;28;20366;-78
2020/12/14 07:43:41;;;;;;;82.55;52.13;;;;;;;;;;5061124;28;20365;-83
2020/12/14 07:46:27;;;;;;;77.30;50.20;;;;;;;;;;5059591;28;20355;-81
2020/12/14 07:48:57;;;;;;;71.13;48.80;;;;;;;;;;5061440;28;20450;-81
2020/12/14 07:51:24;;;;;;;73.47;47.88;;;;;;;;;;5043778;28;20733;-82
2020/12/14 07:53:51;;;;;;;76.35;49.40;;;;;;;;;;5040768;28;20378;-80
2020/12/14 07:56:17;;;;;;;74.82;48.85;;;;;;;;;;5036345;28;20477;-81
2020/12/14 07:58:47;;;;;;;72.60;47.58;;;;;;;;;;5039317;28;20394;-78
2020/12/14 08:01:14;;;;;;;69.18;46.97;;;;;;;;;;5060611;28;20377;-79
2020/12/14 08:03:40;;;;;;;63.55;44.85;;;;;;;;;;5043038;28;20413;-80
2020/12/14 08:06:12;;;;;;;69.28;47.95;;;;;;;;;;5049650;28;20419;-80
2020/12/14 08:08:41;;;;;;;71.13;46.95;;;;;;;;;;5049590;28;20450;-80
2020/12/14 08:11:07;;;;;;;65.40;45.25;;;;;;;;;;5049972;28;20379;-79
2020/12/14 08:13:33;;;;;;;62.25;44.08;;;;;;;;;;5032131;28;20905;-80
2020/12/14 08:16:05;;;;;;;61.25;45.25;;;;;;;;;;5049997;28;20360;-80
2020/12/14 08:18:32;;;;;;;63.92;44.75;;;;;;;;;;5049822;28;20834;-81
2020/12/14 08:20:58;;;;;;;56.73;42.57;;;;;;;;;;5032119;28;20372;-81
2020/12/14 08:23:30;;;;;;;56.87;40.97;;;;;;;;;;5049545;28;20395;-81
2020/12/14 08:25:56;;;;;;;53.53;39.85;;;;;;;;;;5050044;28;20370;-81
2020/12/14 08:28:29;;;;;;;50.65;38.83;;;;;;;;;;5050284;28;20364;-81
2020/12/14 08:30:58;;;;;;;50.28;38.65;;;;;;;;;;5049971;28;20367;-81
2020/12/14 08:33:27;;;;;;;50.63;37.80;;;;;;;;;;5050091;28;21266;-81
2020/12/14 08:35:55;;;;;;;42.13;34.35;;;;;;;;;;5052818;28;20469;-81
2020/12/14 08:38:23;;;;;;;43.17;34.38;;;;;;;;;;5031207;28;20418;-80
2020/12/14 08:40:52;;;;;;;42.03;33.35;;;;;;;;;;5030000;28;20380;-81
2020/12/14 08:43:18;;;;;;;38.15;31.90;;;;;;;;;;5049377;28;20451;-81
2020/12/14 08:46:03;;;;;;;39.17;32.40;;;;;;;;;;5031624;28;20376;-81
2020/12/14 08:48:33;;;;;;;35.70;30.45;;;;;;;;;;5031512;28;20372;-81
2020/12/14 08:51:09;;;;;;;34.20;28.80;;;;;;;;;;5048536;28;20751;-82
2020/12/14 08:53:35;;;;;;;32.72;28.00;;;;;;;;;;5049646;28;20850;-81
2020/12/14 08:56:06;;;;;;;34.25;28.73;;;;;;;;;;5049395;28;20839;-81
2020/12/14 08:58:32;;;;;;;31.38;27.70;;;;;;;;;;5033758;28;20375;-81
2020/12/14 09:01:10;;;;;;;30.48;26.30;;;;;;;;;;5052647;28;20351;-81
2020/12/14 09:04:06;;;;;;;28.17;25.02;;;;;;;;;;5035532;28;20380;-81
2020/12/14 09:06:33;;;;;;;26.60;23.80;;;;;;;;;;5036483;28;20781;-81
2020/12/14 09:09:09;;;;;;;26.05;23.25;;;;;;;;;;5052725;28;20847;-81
2020/12/14 09:11:53;;;;;;;26.77;23.88;;;;;;;;;;5035732;28;20733;-81
2020/12/14 09:14:26;;;;;;;24.33;21.83;;;;;;;;;;5053734;28;20375;-81
2020/12/14 09:16:53;;;;;;;24.57;21.33;;;;;;;;;;5035270;28;20496;-80
2020/12/14 09:19:28;;;;;;;23.25;20.80;;;;;;;;;;5052690;28;20443;-81
2020/12/14 09:21:54;;;;;;;22.20;19.90;;;;;;;;;;5062187;28;21158;-82
2020/12/14 09:24:21;;;;;;;23.02;20.52;;;;;;;;;;5055592;28;20450;-82
2020/12/14 09:26:49;;;;;;;20.42;18.35;;;;;;;;;;5035468;28;20460;-80
2020/12/14 09:29:15;;;;;;;20.50;18.38;;;;;;;;;;5065539;28;20445;-84
2020/12/14 09:31:51;;;;;;;20.10;18.00;;;;;;;;;;5052786;28;20402;-80
2020/12/14 09:34:18;;;;;;;19.83;17.80;;;;;;;;;;5054276;28;20379;-81
2020/12/14 09:36:45;;;;;;;19.27;17.23;;;;;;;;;;5072200;28;20390;-80
2020/12/14 09:39:11;;;;;;;18.33;16.43;;;;;;;;;;5047130;28;20376;-81
2020/12/14 09:41:37;;;;;;;17.65;15.85;;;;;;;;;;5052409;28;20368;-80
2020/12/14 09:44:03;;;;;;;17.58;15.77;;;;;;;;;;5064444;28;20378;-81
2020/12/14 09:46:30;;;;;;;16.45;14.85;;;;;;;;;;5046599;28;20390;-80
2020/12/14 09:48:56;;;;;;;15.90;14.27;;;;;;;;;;5052101;28;20429;-81
2020/12/14 09:51:23;;;;;;;16.30;14.70;;;;;;;;;;5060753;28;20374;-80
2020/12/14 09:53:49;;;;;;;16.45;14.75;;;;;;;;;;5063242;28;20387;-80
2020/12/14 09:56:15;;;;;;;17.52;13.90;;;;;;;;;;5050151;28;20431;-81
2020/12/14 09:58:43;;;;;;;16.02;14.32;;;;;;;;;;5071924;28;20379;-81
2020/12/14 10:01:09;;;;;;;15.17;13.67;;;;;;;;;;5059774;28;20375;-81
2020/12/14 10:03:35;;;;;;;16.25;13.43;;;;;;;;;;5062196;28;20439;-80
2020/12/14 10:06:02;;;;;;;14.55;13.02;;;;;;;;;;5061073;28;20370;-81
2020/12/14 10:08:28;;;;;;;15.07;13.10;;;;;;;;;;5066951;28;20419;-81
2020/12/14 10:10:57;;;;;;;14.25;12.85;;;;;;;;;;5054593;28;20382;-79
2020/12/14 10:13:24;;;;;;;13.45;12.13;;;;;;;;;;5042178;28;20455;-80
2020/12/14 10:15:50;;;;;;;13.65;12.25;;;;;;;;;;5049339;28;20491;-79
2020/12/14 10:18:16;;;;;;;13.27;11.85;;;;;;;;;;5052648;28;20364;-79
2020/12/14 10:20:42;;;;;;;13.43;12.02;;;;;;;;;;5052546;28;20483;-78
2020/12/14 10:23:08;;;;;;;12.77;11.48;;;;;;;;;;5063254;28;20892;-79
2020/12/14 10:25:35;;;;;;;11.95;10.75;;;;;;;;;;5068813;28;20452;-80
2020/12/14 10:28:02;;;;;;;11.90;10.63;;;;;;;;;;5058513;28;20384;-79
2020/12/14 10:30:28;;;;;;;12.80;11.48;;;;;;;;;;5064959;28;20445;-78
2020/12/14 10:32:54;;;;;;;12.15;10.93;;;;;;;;;;5051502;28;20496;-77
2020/12/14 10:35:21;;;;;;;12.02;10.77;;;;;;;;;;5071925;28;20404;-77
2020/12/14 10:37:47;;;;;;;11.73;10.52;;;;;;;;;;5070983;28;20355;-77
2020/12/14 10:40:13;;;;;;;12.20;10.88;;;;;;;;;;5070517;28;20367;-77
2020/12/14 10:42:39;;;;;;;11.63;10.15;;;;;;;;;;5062038;28;20393;-77
2020/12/14 10:45:05;;;;;;;11.95;10.77;;;;;;;;;;5051188;28;20372;-77
2020/12/14 10:47:31;;;;;;;12.00;10.65;;;;;;;;;;5059318;28;20395;-78
2020/12/14 10:49:57;;;;;;;12.02;10.80;;;;;;;;;;5051374;28;20360;-77
2020/12/14 10:52:23;;;;;;;12.57;11.27;;;;;;;;;;5065382;28;20579;-76
2020/12/14 10:54:50;;;;;;;12.27;10.50;;;;;;;;;;5061239;28;20380;-77
2020/12/14 10:57:16;;;;;;;12.88;10.68;;;;;;;;;;5058794;28;20510;-78
2020/12/14 10:59:42;;;;;;;13.70;10.32;;;;;;;;;;5050762;28;20458;-77
2020/12/14 11:02:08;;;;;;;11.63;10.43;;;;;;;;;;5067212;28;20455;-76
2020/12/14 11:04:34;;;;;;;11.60;10.05;;;;;;;;;;5058752;28;20381;-77
2020/12/14 11:07:00;;;;;;;11.75;10.48;;;;;;;;;;5062272;28;20378;-77
2020/12/14 11:09:26;;;;;;;15.05;10.77;;;;;;;;;;5046497;28;20375;-78
2020/12/14 11:11:52;;;;;;;11.77;9.88;;;;;;;;;;5050623;28;20368;-77
2020/12/14 11:14:18;;;;;;;12.30;10.90;;;;;;;;;;5033879;28;20383;-77
2020/12/14 11:16:47;;;;;;;12.60;10.48;;;;;;;;;;5050949;28;20365;-77
2020/12/14 11:19:13;;;;;;;10.85;9.75;;;;;;;;;;5066131;28;20932;-77
2020/12/14 11:21:39;;;;;;;11.60;10.40;;;;;;;;;;5068802;28;20402;-77
2020/12/14 11:24:05;;;;;;;13.03;10.40;;;;;;;;;;5069495;28;20389;-78
2020/12/14 11:26:31;;;;;;;10.48;9.38;;;;;;;;;;5050519;28;20360;-77
2020/12/14 11:28:57;;;;;;;12.60;10.40;;;;;;;;;;5050199;28;20835;-78
2020/12/14 11:31:23;;;;;;;10.48;9.48;;;;;;;;;;5069760;28;20827;-77
2020/12/14 11:33:49;;;;;;;11.67;10.07;;;;;;;;;;5069986;28;20382;-77
2020/12/14 11:36:15;;;;;;;13.23;9.67;;;;;;;;;;5051886;28;20449;-76
2020/12/14 11:38:41;;;;;;;11.23;9.50;;;;;;;;;;5050496;28;20359;-77
2020/12/14 11:41:10;;;;;;;10.93;9.48;;;;;;;;;;5067046;28;20378;-78
2020/12/14 11:43:36;;;;;;;11.13;9.50;;;;;;;;;;5070183;28;20362;-77
2020/12/14 11:46:03;;;;;;;11.40;9.57;;;;;;;;;;5053166;28;20870;-78
2020/12/14 11:48:31;;;;;;;10.50;9.03;;;;;;;;;;5050450;28;20888;-78
2020/12/14 11:50:57;;;;;;;10.55;9.40;;;;;;;;;;5065383;28;20934;-77
2020/12/14 11:53:23;;;;;;;10.85;9.68;;;;;;;;;;5051878;28;20398;-78
2020/12/14 11:55:49;;;;;;;11.05;9.85;;;;;;;;;;5069319;28;20374;-77
2020/12/14 11:58:15;;;;;;;11.40;9.97;;;;;;;;;;5070131;28;20393;-78
2020/12/14 12:00:41;;;;;;;11.20;9.67;;;;;;;;;;5066522;28;20370;-77
2020/12/14 12:03:07;;;;;;;11.00;9.80;;;;;;;;;;5054369;28;20384;-77
2020/12/14 12:05:33;;;;;;;10.70;9.60;;;;;;;;;;5056916;28;20376;-76
2020/12/14 12:07:59;;;;;;;11.15;9.70;;;;;;;;;;5063397;28;20879;-76
2020/12/14 12:10:25;;;;;;;10.48;9.38;;;;;;;;;;5069449;28;20511;-80
2020/12/14 12:12:53;;;;;;;11.38;9.38;;;;;;;;;;5069955;28;20393;-77
2020/12/14 12:15:19;;;;;;;10.55;9.38;;;;;;;;;;5070067;28;20388;-77
2020/12/14 12:17:45;;;;;;;10.95;9.85;;;;;;;;;;5069903;28;20366;-77
2020/12/14 12:20:11;;;;;;;11.20;8.93;;;;;;;;;;5069477;28;20362;-77
2020/12/14 12:22:37;;;;;;;11.05;9.52;;;;;;;;;;5051787;28;20367;-77
2020/12/14 12:25:04;;;;;;;10.15;9.07;;;;;;;;;;5051568;28;20449;-77
2020/12/14 12:27:30;;;;;;;10.88;9.77;;;;;;;;;;5069828;28;20686;-77
2020/12/14 12:29:56;;;;;;;11.73;9.85;;;;;;;;;;5070010;28;20445;-77
2020/12/14 12:32:22;;;;;;;10.98;8.82;;;;;;;;;;5069963;28;20811;-76
2020/12/14 12:34:48;;;;;;;9.93;8.93;;;;;;;;;;5074085;28;20362;-77
2020/12/14 12:37:14;;;;;;;9.30;8.30;;;;;;;;;;5073863;28;20496;-77
2020/12/14 12:39:40;;;;;;;10.60;9.27;;;;;;;;;;5073345;28;20354;-77
2020/12/14 12:42:06;;;;;;;9.80;8.80;;;;;;;;;;5073740;28;20888;-77
2020/12/14 12:44:32;;;;;;;11.00;9.02;;;;;;;;;;5073849;28;20391;-77
2020/12/14 12:46:58;;;;;;;10.57;9.48;;;;;;;;;;5073837;28;20362;-77
2020/12/14 12:49:24;;;;;;;9.95;8.95;;;;;;;;;;5073153;28;20365;-76
2020/12/14 12:51:58;;;;;;;10.25;9.15;;;;;;;;;;5067643;28;20476;-78
2020/12/14 12:54:23;;;;;;;10.18;9.13;;;;;;;;;;5070616;28;20374;-77
2020/12/14 12:56:49;;;;;;;10.55;9.30;;;;;;;;;;5055381;28;20366;-78
2020/12/14 12:59:15;;;;;;;10.95;9.80;;;;;;;;;;5053671;28;20464;-77
2020/12/14 13:01:42;;;;;;;10.30;8.93;;;;;;;;;;5073508;28;20366;-80
2020/12/14 13:04:08;;;;;;;10.23;9.13;;;;;;;;;;5068028;28;20379;-78
2020/12/14 13:06:36;;;;;;;10.23;9.13;;;;;;;;;;5052712;28;20360;-80
2020/12/14 13:09:02;;;;;;;10.77;9.18;;;;;;;;;;5059789;28;20378;-79
2020/12/14 13:11:29;;;;;;;10.73;9.10;;;;;;;;;;5056155;28;20372;-79
2020/12/14 13:13:56;;;;;;;10.43;9.32;;;;;;;;;;5064842;28;20396;-80
2020/12/14 13:16:25;;;;;;;11.48;9.50;;;;;;;;;;5055021;28;20379;-81
2020/12/14 13:18:52;;;;;;;10.10;9.02;;;;;;;;;;5062259;28;20397;-80
2020/12/14 13:21:25;;;;;;;10.20;9.15;;;;;;;;;;5058968;28;20368;-80
2020/12/14 13:23:51;;;;;;;9.73;8.73;;;;;;;;;;5057028;28;20395;-81
2020/12/14 13:26:18;;;;;;;10.55;8.60;;;;;;;;;;5042591;28;20381;-80
2020/12/14 13:28:44;;;;;;;10.32;9.20;;;;;;;;;;5043862;28;20395;-79
2020/12/14 13:31:11;;;;;;;10.57;8.82;;;;;;;;;;5062047;28;20367;-81
2020/12/14 13:33:37;;;;;;;10.70;9.10;;;;;;;;;;5044026;28;20459;-80
2020/12/14 13:36:05;;;;;;;9.80;8.80;;;;;;;;;;5073605;28;20784;-82
2020/12/14 13:38:32;;;;;;;10.20;9.13;;;;;;;;;;5058967;28;20955;-80
2020/12/14 13:40:58;;;;;;;10.02;8.80;;;;;;;;;;5059984;28;20372;-80
2020/12/14 13:43:25;;;;;;;9.90;8.48;;;;;;;;;;5042505;28;21104;-82
2020/12/14 13:45:51;;;;;;;9.90;8.18;;;;;;;;;;5065839;28;20357;-81
2020/12/14 13:48:17;;;;;;;9.68;8.65;;;;;;;;;;5060019;28;20369;-81
2020/12/14 13:50:43;;;;;;;10.00;8.80;;;;;;;;;;5061710;28;20368;-80
2020/12/14 13:53:10;;;;;;;10.60;9.00;;;;;;;;;;5066090;28;20394;-80
2020/12/14 13:55:37;;;;;;;9.93;8.80;;;;;;;;;;5063079;28;20375;-80
2020/12/14 13:58:03;;;;;;;9.10;8.20;;;;;;;;;;5040307;28;20563;-79
2020/12/14 14:00:30;;;;;;;9.68;8.65;;;;;;;;;;5061815;28;20706;-81
2020/12/14 14:02:57;;;;;;;9.25;8.35;;;;;;;;;;5041218;28;20374;-80
2020/12/14 14:05:23;;;;;;;8.95;8.05;;;;;;;;;;5060657;28;20374;-81
2020/12/14 14:07:49;;;;;;;8.77;7.93;;;;;;;;;;5071619;28;20378;-80
2020/12/14 14:10:15;;;;;;;8.90;7.95;;;;;;;;;;5046864;28;20923;-79
2020/12/14 14:12:42;;;;;;;8.90;7.70;;;;;;;;;;5064457;28;20500;-80
2020/12/14 14:15:11;;;;;;;9.45;8.40;;;;;;;;;;5049194;28;20371;-79